createdAt,value
2019-04-16T00:02:38.596Z,49.63
2019-04-16T00:05:16.017Z,50.00
2019-04-16T00:07:58.041Z,49.98
2019-04-16T00:10:46.658Z,50.35
2019-04-16T00:13:29.903Z,50.43
2019-04-16T00:16:01.406Z,50.21
2019-04-16T00:18:32.214Z,50.70
2019-04-16T00:21:38.499Z,50.62
2019-04-16T00:24:37.366Z,51.10
2019-04-16T00:27:08.478Z,51.26
2019-04-16T00:29:39.945Z,50.68
2019-04-16T00:32:20.389Z,50.94
2019-04-16T00:34:51.355Z,51.14
2019-04-16T00:37:22.249Z,50.97
2019-04-16T00:39:56.045Z,51.47
2019-04-16T00:42:26.738Z,51.60
2019-04-16T00:44:57.883Z,51.77
2019-04-16T00:47:28.825Z,51.74
2019-04-16T00:50:00.095Z,51.90
2019-04-16T00:52:31.153Z,51.92
2019-04-16T00:55:02.173Z,52.10
2019-04-16T00:57:33.117Z,51.65
2019-04-16T01:00:04.253Z,52.07
2019-04-16T01:02:35.298Z,51.83
2019-04-16T01:05:06.502Z,52.04
2019-04-16T01:07:37.411Z,51.73
2019-04-16T01:10:08.380Z,52.36
2019-04-16T01:12:39.285Z,52.89
2019-04-16T01:15:10.187Z,52.54
2019-04-16T01:17:41.118Z,52.48
2019-04-16T01:20:13.115Z,52.70
2019-04-16T01:22:46.850Z,52.13
2019-04-16T01:25:17.020Z,52.64
2019-04-16T01:27:52.169Z,52.79
2019-04-16T01:30:41.947Z,53.07
2019-04-16T01:33:22.208Z,52.99
2019-04-16T01:35:59.757Z,53.50
2019-04-16T01:38:36.364Z,53.28
2019-04-16T01:41:10.072Z,52.81
2019-04-16T01:43:41.215Z,52.59
2019-04-16T01:46:12.113Z,52.83
2019-04-16T01:48:43.176Z,53.25
2019-04-16T01:51:15.398Z,53.87
2019-04-16T01:53:49.241Z,53.91
2019-04-16T01:56:19.326Z,53.52
2019-04-16T01:58:50.277Z,54.01
2019-04-16T02:01:22.367Z,53.89
2019-04-16T02:03:53.266Z,53.94
2019-04-16T02:06:25.939Z,53.72
2019-04-16T02:09:01.765Z,54.03
2019-04-16T02:11:29.456Z,53.72
2019-04-16T02:14:00.732Z,53.44
2019-04-16T02:16:31.790Z,54.33
2019-04-16T02:19:02.873Z,53.79
2019-04-16T02:21:33.849Z,53.40
2019-04-16T02:24:04.801Z,53.65
2019-04-16T02:26:35.817Z,53.75
2019-04-16T02:29:06.856Z,53.68
2019-04-16T02:31:37.725Z,53.83
2019-04-16T02:34:11.753Z,53.61
2019-04-16T02:36:42.839Z,53.33
2019-04-16T02:39:14.112Z,53.44
2019-04-16T02:41:45.092Z,53.67
2019-04-16T02:44:17.024Z,53.71
2019-04-16T02:46:48.055Z,53.75
2019-04-16T02:49:23.215Z,53.74
2019-04-16T02:52:14.855Z,53.56
2019-04-16T02:55:07.672Z,53.62
2019-04-16T02:57:59.502Z,53.48
2019-04-16T03:00:58.163Z,53.61
2019-04-16T03:03:34.746Z,53.49
2019-04-16T03:06:06.213Z,53.27
2019-04-16T03:08:37.162Z,53.18
2019-04-16T03:11:08.251Z,53.37
2019-04-16T03:13:39.184Z,53.27
2019-04-16T03:16:20.848Z,53.42
2019-04-16T03:18:59.126Z,53.33
2019-04-16T03:21:30.145Z,53.28
2019-04-16T03:24:01.070Z,53.39
2019-04-16T03:26:31.965Z,53.13
2019-04-16T03:29:03.295Z,53.42
2019-04-16T03:31:34.302Z,53.42
2019-04-16T03:34:06.530Z,53.17
2019-04-16T03:36:37.669Z,53.08
2019-04-16T03:39:12.279Z,53.63
2019-04-16T03:41:41.144Z,53.27
2019-04-16T03:44:12.016Z,53.97
2019-04-16T03:46:46.313Z,53.95
2019-04-16T03:49:15.309Z,53.58
2019-04-16T03:51:46.472Z,53.94
2019-04-16T03:54:18.866Z,54.03
2019-04-16T03:56:50.968Z,54.00
2019-04-16T03:59:22.056Z,53.78
2019-04-16T04:01:53.051Z,53.74
2019-04-16T04:04:28.967Z,54.14
2019-04-16T04:06:56.537Z,54.09
2019-04-16T04:09:27.332Z,53.85
2019-04-16T04:11:58.609Z,54.21
2019-04-16T04:14:29.558Z,54.39
2019-04-16T04:17:05.355Z,54.22
2019-04-16T04:19:33.184Z,54.20
2019-04-16T04:22:04.184Z,53.84
2019-04-16T04:24:35.096Z,54.03
2019-04-16T04:27:06.412Z,54.45
2019-04-16T04:29:37.725Z,54.19
2019-04-16T04:32:08.769Z,54.28
2019-04-16T04:34:39.577Z,54.38
2019-04-16T04:37:10.412Z,54.27
2019-04-16T04:39:44.126Z,54.14
2019-04-16T04:42:14.176Z,54.26
2019-04-16T04:44:46.945Z,54.35
2019-04-16T04:47:19.290Z,54.47
2019-04-16T04:49:50.479Z,54.54
2019-04-16T04:52:21.512Z,54.24
2019-04-16T04:54:54.136Z,54.17
2019-04-16T04:57:25.495Z,54.41
2019-04-16T04:59:56.411Z,54.36
2019-04-16T05:02:27.401Z,54.12
2019-04-16T05:05:04.287Z,54.44
2019-04-16T05:07:35.213Z,54.28
2019-04-16T05:10:07.447Z,54.08
2019-04-16T05:12:38.920Z,54.32
2019-04-16T05:15:09.635Z,54.27
2019-04-16T05:17:40.297Z,54.17
2019-04-16T05:20:14.852Z,54.15
2019-04-16T05:22:44.287Z,54.65
2019-04-16T05:25:15.297Z,54.53
2019-04-16T05:27:46.323Z,54.29
2019-04-16T05:30:21.072Z,54.53
2019-04-16T05:32:51.560Z,54.36
2019-04-16T05:35:22.642Z,54.08
2019-04-16T05:37:53.729Z,53.91
2019-04-16T05:40:28.232Z,54.07
2019-04-16T05:42:58.998Z,54.14
2019-04-16T05:45:30.245Z,54.12
2019-04-16T05:48:01.190Z,54.07
2019-04-16T05:50:32.140Z,53.66
2019-04-16T05:53:05.394Z,53.57
2019-04-16T05:55:50.628Z,53.72
2019-04-16T05:58:21.653Z,53.80
2019-04-16T06:01:17.734Z,53.53
2019-04-16T06:03:52.830Z,53.37
2019-04-16T06:06:21.814Z,53.29
2019-04-16T06:08:56.016Z,53.11
2019-04-16T06:11:29.176Z,52.79
2019-04-16T06:14:06.603Z,52.84
2019-04-16T06:16:56.971Z,52.42
2019-04-16T06:20:05.799Z,52.11
2019-04-16T06:22:55.359Z,51.96
2019-04-16T06:25:29.495Z,51.50
2019-04-16T06:28:19.302Z,51.07
2019-04-16T06:30:59.253Z,50.38
2019-04-16T06:33:52.248Z,50.06
2019-04-16T06:36:48.067Z,49.52
2019-04-16T06:39:36.917Z,49.58
2019-04-16T06:42:11.233Z,48.46
2019-04-16T06:44:50.614Z,48.70
2019-04-16T06:47:30.271Z,48.09
2019-04-16T06:50:30.708Z,48.03
2019-04-16T06:53:05.270Z,47.29
2019-04-16T06:55:43.034Z,47.25
2019-04-16T06:58:18.900Z,46.83
2019-04-16T07:01:09.006Z,45.73
2019-04-16T07:03:59.969Z,46.23
2019-04-16T07:06:50.989Z,45.51
2019-04-16T07:09:40.847Z,45.32
2019-04-16T07:12:10.361Z,45.68
2019-04-16T07:14:41.480Z,44.96
2019-04-16T07:17:12.639Z,44.56
2019-04-16T07:19:43.847Z,44.05
2019-04-16T07:22:20.777Z,43.78
2019-04-16T07:24:49.983Z,43.41
2019-04-16T07:27:21.441Z,43.15
2019-04-16T07:29:57.913Z,43.28
2019-04-16T07:32:54.469Z,43.41
2019-04-16T07:35:33.991Z,43.40
2019-04-16T07:38:21.003Z,43.22
2019-04-16T07:41:12.378Z,42.49
2019-04-16T07:44:11.010Z,43.08
2019-04-16T07:46:49.674Z,42.21
2019-04-16T07:49:42.514Z,42.68
2019-04-16T07:52:38.984Z,42.67
2019-04-16T07:55:19.992Z,40.61
2019-04-16T07:57:51.364Z,39.70
2019-04-16T08:00:22.579Z,40.31
2019-04-16T08:02:54.693Z,39.77
2019-04-16T08:05:27.858Z,39.32
2019-04-16T08:07:59.183Z,39.46
2019-04-16T08:10:31.908Z,39.86
2019-04-16T08:13:14.167Z,40.01
2019-04-16T08:15:45.512Z,39.64
2019-04-16T08:18:16.828Z,38.86
2019-04-16T08:21:01.066Z,38.75
2019-04-16T08:23:34.011Z,37.69
2019-04-16T08:26:11.371Z,37.78
2019-04-16T08:28:39.557Z,37.63
2019-04-16T08:31:16.334Z,38.51
2019-04-16T08:33:47.472Z,36.55
2019-04-16T08:36:18.797Z,37.33
2019-04-16T08:38:50.261Z,35.71
2019-04-16T08:41:21.749Z,35.79
2019-04-16T08:43:53.386Z,36.29
2019-04-16T08:46:26.654Z,36.78
2019-04-16T08:48:57.554Z,36.51
2019-04-16T08:51:31.272Z,36.03
2019-04-16T08:54:01.708Z,36.26
2019-04-16T08:56:32.950Z,35.81
2019-04-16T08:59:09.590Z,35.91
2019-04-16T09:01:37.333Z,35.45
2019-04-16T09:04:08.886Z,35.31
2019-04-16T09:06:42.630Z,35.71
2019-04-16T09:09:32.647Z,35.11
2019-04-16T09:12:09.445Z,35.29
2019-04-16T09:14:46.331Z,35.58
2019-04-16T09:17:32.096Z,35.07
2019-04-16T09:24:28.986Z,35.00
2019-04-16T09:27:06.315Z,35.30
2019-04-16T09:30:04.873Z,35.91
2019-04-16T09:32:50.677Z,34.43
2019-04-16T09:35:38.520Z,34.50
2019-04-16T09:38:28.750Z,34.71
2019-04-16T09:41:10.804Z,33.80
2019-04-16T09:43:47.537Z,33.87
2019-04-16T09:46:25.043Z,33.25
2019-04-16T09:48:52.945Z,33.34
2019-04-16T09:51:26.145Z,33.36
2019-04-16T09:53:57.256Z,33.63
2019-04-16T09:56:32.100Z,32.35
2019-04-16T09:59:11.047Z,33.06
2019-04-16T10:01:48.229Z,33.64
2019-04-16T10:04:21.961Z,32.25
2019-04-16T10:06:53.418Z,32.87
2019-04-16T10:09:24.984Z,31.73
2019-04-16T10:11:59.195Z,31.35
2019-04-16T10:14:31.177Z,31.11
2019-04-16T10:17:08.982Z,32.14
2019-04-16T10:19:43.308Z,32.52
2019-04-16T10:22:20.557Z,33.25
2019-04-16T10:25:01.499Z,33.01
2019-04-16T10:27:43.986Z,32.85
2019-04-16T10:30:21.194Z,32.46
2019-04-16T10:32:52.652Z,32.25
2019-04-16T10:35:27.722Z,33.69
2019-04-16T10:38:03.677Z,32.30
2019-04-16T10:40:53.543Z,32.38
2019-04-16T10:43:56.260Z,32.40
2019-04-16T10:46:38.671Z,32.80
2019-04-16T10:49:36.233Z,32.33
2019-04-16T10:52:29.211Z,32.33
2019-04-16T10:55:24.778Z,31.78
2019-04-16T10:58:13.888Z,33.65
2019-04-16T11:01:02.259Z,30.68
2019-04-16T11:03:47.953Z,32.23
2019-04-16T11:06:34.940Z,32.25
2019-04-16T11:09:09.974Z,31.83
2019-04-16T11:11:49.289Z,32.42
2019-04-16T11:14:25.283Z,32.92
2019-04-16T11:16:57.443Z,31.08
2019-04-16T11:19:33.435Z,30.79
2019-04-16T11:22:12.667Z,30.14
2019-04-16T11:24:46.421Z,30.84
2019-04-16T11:27:26.128Z,29.96
2019-04-16T11:29:56.812Z,30.82
2019-04-16T11:32:32.946Z,30.16
2019-04-16T11:35:13.430Z,29.66
2019-04-16T11:37:52.002Z,30.08
2019-04-16T11:40:22.689Z,29.47
2019-04-16T11:42:56.284Z,28.65
2019-04-16T11:45:30.533Z,29.58
2019-04-16T11:48:05.020Z,29.54
2019-04-16T11:50:51.802Z,29.60
2019-04-16T11:53:26.688Z,30.19
2019-04-16T11:56:04.162Z,28.85
2019-04-16T11:58:46.792Z,28.27
2019-04-16T12:01:40.224Z,29.27
2019-04-16T12:04:19.711Z,29.05
2019-04-16T12:07:06.402Z,26.97
2019-04-16T12:10:01.221Z,28.43
2019-04-16T12:13:06.800Z,28.35
2019-04-16T12:15:45.253Z,27.92
2019-04-16T12:18:41.362Z,28.24
2019-04-16T12:21:31.203Z,27.12
2019-04-16T12:24:21.210Z,26.97
2019-04-16T12:27:00.311Z,27.17
2019-04-16T12:29:42.524Z,27.47
2019-04-16T12:32:35.348Z,27.18
2019-04-16T12:35:21.037Z,28.40
2019-04-16T12:38:13.012Z,27.87
2019-04-16T12:41:05.355Z,27.88
2019-04-16T12:43:50.837Z,27.82
2019-04-16T12:46:42.180Z,28.23
2019-04-16T12:49:31.069Z,27.56
2019-04-16T12:52:17.586Z,28.45
2019-04-16T12:56:16.622Z,28.09
2019-04-16T12:59:09.689Z,28.22
2019-04-16T13:57:06.567Z,28.55
2019-04-16T14:00:08.319Z,28.46
2019-04-16T14:06:52.041Z,27.32
2019-04-16T14:09:59.490Z,27.64
2019-04-16T14:12:42.082Z,27.70
2019-04-16T14:15:40.372Z,28.32
2019-04-16T14:18:21.614Z,28.32
2019-04-16T14:21:18.689Z,28.74
2019-04-16T14:24:52.388Z,28.42
2019-04-16T14:27:25.232Z,27.86
2019-04-16T14:30:54.034Z,28.90
2019-04-16T14:32:58.176Z,29.37
2019-04-16T14:35:33.920Z,29.50
2019-04-16T14:38:14.592Z,27.50
2019-04-16T14:40:46.094Z,27.27
2019-04-16T14:43:23.095Z,27.32
2019-04-16T14:46:03.399Z,27.88
2019-04-16T14:48:39.064Z,27.76
2019-04-16T14:51:09.377Z,27.29
2019-04-16T14:53:53.337Z,27.60
2019-04-16T14:56:30.790Z,28.62
2019-04-16T14:59:07.911Z,28.71
2019-04-16T15:01:46.074Z,27.92
2019-04-16T15:04:32.887Z,27.02
2019-04-16T15:07:19.224Z,27.50
2019-04-16T15:10:07.222Z,27.49
2019-04-16T15:12:58.272Z,27.04
2019-04-16T15:15:42.147Z,27.28
2019-04-16T15:18:35.858Z,26.86
2019-04-16T15:21:25.611Z,27.03
2019-04-16T15:24:10.250Z,24.67
2019-04-16T15:26:58.528Z,25.22
2019-04-16T15:29:35.356Z,25.02
2019-04-16T15:32:34.759Z,24.41
2019-04-16T15:35:14.117Z,23.97
2019-04-16T15:37:57.859Z,24.34
2019-04-16T15:40:32.045Z,24.32
2019-04-16T15:43:21.030Z,24.44
2019-04-16T15:46:26.946Z,24.02
2019-04-16T15:49:19.437Z,24.17
2019-04-16T15:52:10.117Z,24.68
2019-04-16T15:54:50.177Z,24.64
2019-04-16T15:57:49.233Z,25.03
2019-04-16T16:00:28.746Z,25.56
2019-04-16T16:03:20.642Z,25.94
2019-04-16T16:06:07.300Z,25.68
2019-04-16T16:08:43.915Z,26.37
2019-04-16T16:11:39.375Z,26.18
2019-04-16T16:14:14.319Z,26.80
2019-04-16T16:16:50.707Z,26.98
2019-04-16T16:19:25.789Z,26.97
2019-04-16T16:22:11.059Z,26.28
2019-04-16T16:24:42.445Z,26.41
2019-04-16T16:27:46.840Z,26.84
2019-04-16T16:32:40.325Z,26.99
2019-04-16T16:34:47.447Z,27.30
2019-04-16T16:37:50.181Z,28.06
2019-04-16T16:40:54.886Z,27.84
2019-04-16T16:43:29.361Z,28.15
2019-04-16T16:46:31.134Z,28.06
2019-04-16T16:49:09.237Z,28.20
2019-04-16T16:51:50.351Z,28.69
2019-04-16T16:54:32.147Z,28.77
2019-04-16T16:57:26.053Z,28.65
2019-04-16T17:00:16.161Z,28.67
2019-04-16T17:02:57.310Z,28.37
2019-04-16T17:06:33.451Z,28.30
2019-04-16T17:09:05.791Z,28.52
2019-04-16T17:11:36.965Z,28.58
2019-04-16T17:14:08.570Z,28.31
2019-04-16T17:16:41.912Z,29.14
2019-04-16T17:19:13.304Z,29.08
2019-04-16T17:21:44.482Z,29.17
2019-04-16T17:24:42.545Z,29.34
2019-04-16T17:27:17.731Z,29.35
2019-04-16T17:29:49.837Z,29.18
2019-04-16T17:32:21.913Z,29.57
2019-04-16T17:34:53.648Z,29.58
2019-04-16T17:37:28.045Z,30.00
2019-04-16T17:40:02.501Z,29.75
2019-04-16T17:42:37.623Z,30.08
2019-04-16T17:45:27.130Z,30.05
2019-04-16T17:48:13.654Z,30.36
2019-04-16T17:51:02.644Z,30.20
2019-04-16T17:56:41.426Z,30.86
2019-04-16T17:59:19.360Z,30.93
2019-04-16T18:02:15.046Z,31.12
2019-04-16T18:05:00.847Z,31.48
2019-04-16T18:10:37.784Z,31.51
2019-04-16T18:13:34.547Z,31.62
2019-04-16T18:16:16.793Z,31.47
2019-04-16T18:19:05.129Z,31.62
2019-04-16T18:22:04.396Z,32.25
2019-04-16T18:24:45.097Z,32.28
2019-04-16T18:27:50.490Z,32.20
2019-04-16T18:30:37.327Z,32.55
2019-04-16T18:33:15.646Z,32.57
2019-04-16T18:35:56.674Z,32.01
2019-04-16T18:38:47.460Z,32.33
2019-04-16T18:41:50.319Z,32.90
2019-04-16T18:44:39.810Z,33.34
2019-04-16T18:47:29.365Z,33.96
2019-04-16T18:50:02.829Z,34.30
2019-04-16T18:52:36.614Z,35.21
2019-04-16T18:55:08.542Z,35.36
2019-04-16T18:57:41.070Z,35.73
2019-04-16T19:00:33.198Z,36.01
2019-04-16T19:03:14.657Z,36.22
2019-04-16T19:05:44.085Z,36.32
2019-04-16T19:08:17.248Z,36.84
2019-04-16T19:10:51.506Z,38.87
2019-04-16T19:13:22.941Z,39.54
2019-04-16T19:15:55.111Z,39.76
2019-04-16T19:18:29.007Z,39.39
2019-04-16T19:21:03.211Z,39.34
2019-04-16T19:23:35.189Z,39.43
2019-04-16T19:26:07.064Z,41.36
2019-04-16T19:28:40.320Z,42.70
2019-04-16T19:31:13.649Z,42.54
2019-04-16T19:33:46.188Z,41.56
2019-04-16T19:36:24.965Z,41.11
2019-04-16T19:38:55.125Z,42.28
2019-04-16T19:41:31.763Z,41.34
2019-04-16T19:44:06.365Z,41.50
2019-04-16T19:46:38.909Z,41.93
2019-04-16T19:49:10.557Z,42.65
2019-04-16T19:51:42.168Z,42.85
2019-04-16T19:54:13.815Z,42.61
2019-04-16T19:56:51.127Z,43.14
2019-04-16T19:59:18.973Z,43.62
2019-04-16T20:02:01.752Z,43.73
2019-04-16T20:04:54.551Z,44.64
2019-04-16T20:07:38.024Z,45.49
2019-04-16T20:10:34.971Z,44.49
2019-04-16T20:14:02.682Z,44.40
2019-04-16T20:16:34.808Z,44.76
2019-04-16T20:19:22.118Z,47.88
2019-04-16T20:21:54.947Z,46.54
2019-04-16T20:24:27.429Z,46.32
2019-04-16T20:26:58.524Z,46.46
2019-04-16T20:29:29.710Z,48.57
2019-04-16T20:32:06.866Z,48.17
2019-04-16T20:34:38.057Z,47.92
2019-04-16T20:37:09.211Z,48.24
2019-04-16T20:39:42.804Z,48.39
2019-04-16T20:42:15.817Z,47.94
2019-04-16T20:44:48.535Z,47.48
2019-04-16T20:47:19.673Z,47.80
2019-04-16T20:49:50.977Z,48.66
2019-04-16T20:52:22.159Z,48.23
2019-04-16T20:54:54.544Z,48.33
2019-04-16T20:57:26.488Z,48.38
2019-04-16T21:00:00.393Z,48.77
2019-04-16T21:02:33.319Z,49.01
2019-04-16T21:05:04.982Z,49.60
2019-04-16T21:07:43.962Z,50.03
2019-04-16T21:10:19.140Z,50.22
2019-04-16T21:15:57.179Z,51.04
2019-04-16T21:18:27.844Z,51.28
2019-04-16T21:21:27.239Z,51.87
2019-04-16T21:24:19.261Z,51.24
2019-04-16T21:26:57.285Z,50.92
2019-04-16T21:29:53.178Z,52.16
2019-04-16T21:35:56.624Z,51.50
2019-04-16T21:41:25.577Z,51.19
2019-04-16T21:43:57.994Z,51.11
2019-04-16T21:46:58.329Z,52.11
2019-04-16T21:49:38.720Z,52.74
2019-04-16T21:52:27.267Z,52.55
2019-04-16T21:55:03.017Z,52.31
2019-04-16T21:57:31.262Z,53.25
2019-04-16T22:00:03.369Z,52.49
2019-04-16T22:02:37.990Z,52.52
2019-04-16T22:05:10.591Z,53.89
2019-04-16T22:07:41.847Z,55.27
2019-04-16T22:10:12.907Z,55.54
2019-04-16T22:12:47.595Z,55.09
2019-04-16T22:15:18.139Z,54.25
2019-04-16T22:17:49.418Z,53.74
2019-04-16T22:20:20.486Z,53.87
2019-04-16T22:22:51.680Z,53.88
2019-04-16T22:25:23.795Z,54.90
2019-04-16T22:27:55.855Z,54.65
2019-04-16T22:30:27.560Z,55.67
2019-04-16T22:32:58.759Z,56.48
2019-04-16T22:35:32.639Z,57.31
2019-04-16T22:38:03.844Z,57.73
2019-04-16T22:40:51.697Z,56.46
2019-04-16T22:43:42.715Z,56.76
2019-04-16T22:46:20.089Z,56.88
2019-04-16T22:49:01.756Z,56.49
2019-04-16T22:51:32.976Z,56.50
2019-04-16T22:54:04.088Z,56.18
2019-04-16T22:56:46.323Z,56.63
2019-04-16T22:59:20.167Z,56.60
2019-04-16T23:01:53.418Z,56.40
2019-04-16T23:04:26.156Z,56.09
2019-04-16T23:06:56.953Z,56.50
2019-04-16T23:09:29.934Z,56.72
2019-04-16T23:12:01.068Z,56.59
2019-04-16T23:14:34.953Z,56.92
2019-04-16T23:17:05.463Z,57.17
2019-04-16T23:19:36.860Z,56.93
2019-04-16T23:22:14.239Z,57.19
2019-04-16T23:24:43.931Z,58.47
2019-04-16T23:27:15.016Z,58.10
2019-04-16T23:29:47.630Z,58.28
2019-04-16T23:32:19.005Z,60.51
2019-04-16T23:34:50.279Z,60.93
2019-04-16T23:37:23.411Z,60.09
2019-04-16T23:39:54.023Z,58.71
2019-04-16T23:42:25.061Z,58.45
2019-04-16T23:45:33.108Z,59.17
2019-04-16T23:48:21.409Z,58.80
2019-04-16T23:51:01.451Z,58.43
2019-04-16T23:54:00.575Z,58.51
2019-04-16T23:56:49.697Z,58.73
2019-04-16T23:59:35.739Z,59.00
